sensor_id;sensor_type;location;lat;lon;timestamp;temperature;humidity
25937;DHT22;13733;51.178;4.450;2023-05-18T00:02:05;10.30;99.90
25937;DHT22;13733;51.178;4.450;2023-05-18T00:04:34;10.30;99.90
25937;DHT22;13733;51.178;4.450;2023-05-18T00:07:01;10.30;99.90
25937;DHT22;13733;51.178;4.450;2023-05-18T00:09:35;10.30;99.90
25937;DHT22;13733;51.178;4.450;2023-05-18T00:12:03;10.10;99.90
25937;DHT22;13733;51.178;4.450;2023-05-18T00:14:29;10.20;99.90
25937;DHT22;13733;51.178;4.450;2023-05-18T00:16:55;10.20;99.90
25937;DHT22;13733;51.178;4.450;2023-05-18T00:19:23;10.10;99.90
25937;DHT22;13733;51.178;4.450;2023-05-18T00:21:50;10.10;99.90
25937;DHT22;13733;51.178;4.450;2023-05-18T00:24:17;10.00;99.90
25937;DHT22;13733;51.178;4.450;2023-05-18T00:26:45;10.00;99.90
25937;DHT22;13733;51.178;4.450;2023-05-18T00:29:11;10.00;99.90
25937;DHT22;13733;51.178;4.450;2023-05-18T00:31:38;10.00;99.90
25937;DHT22;13733;51.178;4.450;2023-05-18T00:34:07;9.90;99.90
25937;DHT22;13733;51.178;4.450;2023-05-18T00:36:33;9.90;99.90
25937;DHT22;13733;51.178;4.450;2023-05-18T00:38:59;9.90;99.90
25937;DHT22;13733;51.178;4.450;2023-05-18T00:41:26;9.80;99.90
25937;DHT22;13733;51.178;4.450;2023-05-18T00:43:53;9.80;99.90
25937;DHT22;13733;51.178;4.450;2023-05-18T00:46:20;9.80;99.90
25937;DHT22;13733;51.178;4.450;2023-05-18T00:48:47;9.80;99.90
25937;DHT22;13733;51.178;4.450;2023-05-18T00:51:14;9.70;99.90
25937;DHT22;13733;51.178;4.450;2023-05-18T00:53:41;9.70;99.90
25937;DHT22;13733;51.178;4.450;2023-05-18T00:56:09;9.70;99.90
25937;DHT22;13733;51.178;4.450;2023-05-18T00:58:35;9.60;99.90
25937;DHT22;13733;51.178;4.450;2023-05-18T01:01:02;9.60;99.90
25937;DHT22;13733;51.178;4.450;2023-05-18T01:03:32;9.50;99.90
25937;DHT22;13733;51.178;4.450;2023-05-18T01:05:58;9.50;99.90
25937;DHT22;13733;51.178;4.450;2023-05-18T01:08:25;9.60;99.90
25937;DHT22;13733;51.178;4.450;2023-05-18T01:16:27;9.30;99.90
25937;DHT22;13733;51.178;4.450;2023-05-18T01:19:08;9.30;99.90
25937;DHT22;13733;51.178;4.450;2023-05-18T01:24:42;9.20;99.90
25937;DHT22;13733;51.178;4.450;2023-05-18T01:27:16;9.20;99.90
25937;DHT22;13733;51.178;4.450;2023-05-18T01:29:45;9.10;99.90
25937;DHT22;13733;51.178;4.450;2023-05-18T01:32:19;9.10;99.90
25937;DHT22;13733;51.178;4.450;2023-05-18T01:34:47;9.10;99.90
25937;DHT22;13733;51.178;4.450;2023-05-18T01:37:13;9.00;99.90
25937;DHT22;13733;51.178;4.450;2023-05-18T01:39:40;9.00;99.90
25937;DHT22;13733;51.178;4.450;2023-05-18T01:42:12;9.00;99.90
25937;DHT22;13733;51.178;4.450;2023-05-18T01:44:44;9.00;99.90
25937;DHT22;13733;51.178;4.450;2023-05-18T01:47:14;9.00;99.90
25937;DHT22;13733;51.178;4.450;2023-05-18T01:49:58;8.90;99.90
25937;DHT22;13733;51.178;4.450;2023-05-18T01:52:36;8.90;99.90
25937;DHT22;13733;51.178;4.450;2023-05-18T01:55:06;8.90;99.90
25937;DHT22;13733;51.178;4.450;2023-05-18T01:57:35;8.90;99.90
25937;DHT22;13733;51.178;4.450;2023-05-18T02:00:03;8.90;99.90
25937;DHT22;13733;51.178;4.450;2023-05-18T02:02:41;8.80;99.90
25937;DHT22;13733;51.178;4.450;2023-05-18T02:05:08;8.80;99.90
25937;DHT22;13733;51.178;4.450;2023-05-18T02:07:38;8.80;99.90
25937;DHT22;13733;51.178;4.450;2023-05-18T02:10:06;8.80;99.90
25937;DHT22;13733;51.178;4.450;2023-05-18T02:12:33;8.80;99.90
25937;DHT22;13733;51.178;4.450;2023-05-18T02:14:59;8.70;99.90
25937;DHT22;13733;51.178;4.450;2023-05-18T02:17:34;8.70;99.90
25937;DHT22;13733;51.178;4.450;2023-05-18T02:20:04;8.70;99.90
25937;DHT22;13733;51.178;4.450;2023-05-18T02:22:35;8.70;99.90
25937;DHT22;13733;51.178;4.450;2023-05-18T02:25:02;8.60;99.90
25937;DHT22;13733;51.178;4.450;2023-05-18T02:27:29;8.70;99.90
25937;DHT22;13733;51.178;4.450;2023-05-18T02:29:56;8.70;99.90
25937;DHT22;13733;51.178;4.450;2023-05-18T02:32:22;8.80;99.90
25937;DHT22;13733;51.178;4.450;2023-05-18T02:34:54;8.80;99.90
25937;DHT22;13733;51.178;4.450;2023-05-18T02:37:20;8.80;99.90
25937;DHT22;13733;51.178;4.450;2023-05-18T02:39:47;8.80;99.90
25937;DHT22;13733;51.178;4.450;2023-05-18T02:42:13;8.70;99.90
25937;DHT22;13733;51.178;4.450;2023-05-18T02:44:39;8.70;99.90
25937;DHT22;13733;51.178;4.450;2023-05-18T02:47:07;8.80;99.90
25937;DHT22;13733;51.178;4.450;2023-05-18T02:49:35;8.80;99.90
25937;DHT22;13733;51.178;4.450;2023-05-18T02:52:01;8.80;99.90
25937;DHT22;13733;51.178;4.450;2023-05-18T02:54:27;8.70;99.90
25937;DHT22;13733;51.178;4.450;2023-05-18T02:56:53;8.60;99.90
25937;DHT22;13733;51.178;4.450;2023-05-18T02:59:41;8.60;99.90
25937;DHT22;13733;51.178;4.450;2023-05-18T03:02:08;8.50;99.90
25937;DHT22;13733;51.178;4.450;2023-05-18T03:04:33;8.50;99.90
25937;DHT22;13733;51.178;4.450;2023-05-18T03:07:00;8.40;99.90
25937;DHT22;13733;51.178;4.450;2023-05-18T03:09:28;8.40;99.90
25937;DHT22;13733;51.178;4.450;2023-05-18T03:11:54;8.40;99.90
25937;DHT22;13733;51.178;4.450;2023-05-18T03:14:20;8.40;99.90
25937;DHT22;13733;51.178;4.450;2023-05-18T03:16:46;8.40;99.90
25937;DHT22;13733;51.178;4.450;2023-05-18T03:19:14;8.40;99.90
25937;DHT22;13733;51.178;4.450;2023-05-18T03:21:41;8.30;99.90
25937;DHT22;13733;51.178;4.450;2023-05-18T03:24:07;8.20;99.90
25937;DHT22;13733;51.178;4.450;2023-05-18T03:26:36;8.20;99.90
25937;DHT22;13733;51.178;4.450;2023-05-18T03:29:03;8.20;99.90
25937;DHT22;13733;51.178;4.450;2023-05-18T03:31:29;8.20;99.90
25937;DHT22;13733;51.178;4.450;2023-05-18T03:33:57;8.10;99.90
25937;DHT22;13733;51.178;4.450;2023-05-18T03:36:23;8.10;99.90
25937;DHT22;13733;51.178;4.450;2023-05-18T03:38:52;8.10;99.90
25937;DHT22;13733;51.178;4.450;2023-05-18T03:41:18;8.20;99.90
25937;DHT22;13733;51.178;4.450;2023-05-18T03:43:44;8.10;99.90
25937;DHT22;13733;51.178;4.450;2023-05-18T03:46:11;8.10;99.90
25937;DHT22;13733;51.178;4.450;2023-05-18T03:48:36;8.10;99.90
25937;DHT22;13733;51.178;4.450;2023-05-18T03:51:03;8.10;99.90
25937;DHT22;13733;51.178;4.450;2023-05-18T03:53:30;8.10;99.90
25937;DHT22;13733;51.178;4.450;2023-05-18T03:55:58;8.10;99.90
25937;DHT22;13733;51.178;4.450;2023-05-18T03:58:24;8.00;99.90
25937;DHT22;13733;51.178;4.450;2023-05-18T04:00:52;7.90;99.90
25937;DHT22;13733;51.178;4.450;2023-05-18T04:03:18;8.00;99.90
25937;DHT22;13733;51.178;4.450;2023-05-18T04:05:46;8.00;99.90
25937;DHT22;13733;51.178;4.450;2023-05-18T04:08:11;8.00;99.90
25937;DHT22;13733;51.178;4.450;2023-05-18T04:10:41;8.00;99.90
25937;DHT22;13733;51.178;4.450;2023-05-18T04:13:09;8.00;99.90
25937;DHT22;13733;51.178;4.450;2023-05-18T04:15:35;8.00;99.90
25937;DHT22;13733;51.178;4.450;2023-05-18T04:18:01;8.10;99.90
25937;DHT22;13733;51.178;4.450;2023-05-18T04:20:27;8.00;99.90
25937;DHT22;13733;51.178;4.450;2023-05-18T04:22:55;8.10;99.90
25937;DHT22;13733;51.178;4.450;2023-05-18T04:25:22;8.10;99.90
25937;DHT22;13733;51.178;4.450;2023-05-18T04:27:53;8.10;99.90
25937;DHT22;13733;51.178;4.450;2023-05-18T04:30:20;8.10;99.90
25937;DHT22;13733;51.178;4.450;2023-05-18T04:32:50;8.10;99.90
25937;DHT22;13733;51.178;4.450;2023-05-18T04:35:16;8.20;99.90
25937;DHT22;13733;51.178;4.450;2023-05-18T04:37:43;8.20;99.90
25937;DHT22;13733;51.178;4.450;2023-05-18T04:40:14;8.20;99.90
25937;DHT22;13733;51.178;4.450;2023-05-18T04:42:43;8.20;99.90
25937;DHT22;13733;51.178;4.450;2023-05-18T04:45:21;8.20;99.90
25937;DHT22;13733;51.178;4.450;2023-05-18T04:47:50;8.20;99.90
25937;DHT22;13733;51.178;4.450;2023-05-18T04:50:21;8.20;99.90
25937;DHT22;13733;51.178;4.450;2023-05-18T04:52:50;8.20;99.90
25937;DHT22;13733;51.178;4.450;2023-05-18T04:55:19;8.30;99.90
25937;DHT22;13733;51.178;4.450;2023-05-18T04:57:54;8.40;99.90
25937;DHT22;13733;51.178;4.450;2023-05-18T05:00:25;8.40;99.90
25937;DHT22;13733;51.178;4.450;2023-05-18T05:02:51;8.40;99.90
25937;DHT22;13733;51.178;4.450;2023-05-18T05:05:17;8.40;99.90
25937;DHT22;13733;51.178;4.450;2023-05-18T05:07:43;8.50;99.90
25937;DHT22;13733;51.178;4.450;2023-05-18T05:10:09;8.50;99.90
25937;DHT22;13733;51.178;4.450;2023-05-18T05:12:36;8.50;99.90
25937;DHT22;13733;51.178;4.450;2023-05-18T05:15:03;8.60;99.90
25937;DHT22;13733;51.178;4.450;2023-05-18T05:17:29;8.60;99.90
25937;DHT22;13733;51.178;4.450;2023-05-18T05:19:55;8.60;99.90
25937;DHT22;13733;51.178;4.450;2023-05-18T05:22:21;8.60;99.90
25937;DHT22;13733;51.178;4.450;2023-05-18T05:24:47;8.50;99.90
25937;DHT22;13733;51.178;4.450;2023-05-18T05:27:13;8.50;99.90
25937;DHT22;13733;51.178;4.450;2023-05-18T05:29:39;8.50;99.90
25937;DHT22;13733;51.178;4.450;2023-05-18T05:32:05;8.50;99.90
25937;DHT22;13733;51.178;4.450;2023-05-18T05:34:31;8.60;99.90
25937;DHT22;13733;51.178;4.450;2023-05-18T05:36:58;8.50;99.90
25937;DHT22;13733;51.178;4.450;2023-05-18T05:39:24;8.50;99.90
25937;DHT22;13733;51.178;4.450;2023-05-18T05:41:50;8.50;99.90
25937;DHT22;13733;51.178;4.450;2023-05-18T05:44:16;8.50;99.90
25937;DHT22;13733;51.178;4.450;2023-05-18T05:46:42;8.50;99.90
25937;DHT22;13733;51.178;4.450;2023-05-18T05:49:09;8.60;99.90
25937;DHT22;13733;51.178;4.450;2023-05-18T05:51:36;8.60;99.90
25937;DHT22;13733;51.178;4.450;2023-05-18T05:54:02;8.60;99.90
25937;DHT22;13733;51.178;4.450;2023-05-18T05:56:28;8.60;99.90
25937;DHT22;13733;51.178;4.450;2023-05-18T05:58:55;8.70;99.90
25937;DHT22;13733;51.178;4.450;2023-05-18T06:01:20;8.80;99.90
25937;DHT22;13733;51.178;4.450;2023-05-18T06:03:47;8.90;99.90
25937;DHT22;13733;51.178;4.450;2023-05-18T06:06:14;8.90;99.90
25937;DHT22;13733;51.178;4.450;2023-05-18T06:08:40;8.90;99.90
25937;DHT22;13733;51.178;4.450;2023-05-18T06:11:07;9.00;99.90
25937;DHT22;13733;51.178;4.450;2023-05-18T06:13:33;9.00;99.90
25937;DHT22;13733;51.178;4.450;2023-05-18T06:16:01;9.10;99.90
25937;DHT22;13733;51.178;4.450;2023-05-18T06:18:27;9.20;99.90
25937;DHT22;13733;51.178;4.450;2023-05-18T06:20:58;9.30;99.90
25937;DHT22;13733;51.178;4.450;2023-05-18T06:23:25;9.40;99.90
25937;DHT22;13733;51.178;4.450;2023-05-18T06:26:11;9.50;99.90
25937;DHT22;13733;51.178;4.450;2023-05-18T06:29:00;9.60;99.90
25937;DHT22;13733;51.178;4.450;2023-05-18T06:32:05;9.70;99.90
25937;DHT22;13733;51.178;4.450;2023-05-18T06:34:37;9.70;99.90
25937;DHT22;13733;51.178;4.450;2023-05-18T06:37:04;9.70;99.90
25937;DHT22;13733;51.178;4.450;2023-05-18T06:39:30;9.70;99.90
25937;DHT22;13733;51.178;4.450;2023-05-18T06:41:57;9.80;99.90
25937;DHT22;13733;51.178;4.450;2023-05-18T06:44:26;9.80;99.90
25937;DHT22;13733;51.178;4.450;2023-05-18T06:47:13;9.80;99.90
25937;DHT22;13733;51.178;4.450;2023-05-18T06:49:38;10.00;99.90
25937;DHT22;13733;51.178;4.450;2023-05-18T06:52:05;10.10;99.90
25937;DHT22;13733;51.178;4.450;2023-05-18T06:54:32;10.10;99.90
25937;DHT22;13733;51.178;4.450;2023-05-18T06:56:59;10.20;99.90
25937;DHT22;13733;51.178;4.450;2023-05-18T06:59:24;10.20;99.90
25937;DHT22;13733;51.178;4.450;2023-05-18T07:01:50;10.30;99.90
25937;DHT22;13733;51.178;4.450;2023-05-18T07:04:16;10.30;99.90
25937;DHT22;13733;51.178;4.450;2023-05-18T07:06:44;10.40;99.90
25937;DHT22;13733;51.178;4.450;2023-05-18T07:09:11;10.60;99.90
25937;DHT22;13733;51.178;4.450;2023-05-18T07:11:37;10.70;99.90
25937;DHT22;13733;51.178;4.450;2023-05-18T07:14:05;10.90;99.90
25937;DHT22;13733;51.178;4.450;2023-05-18T07:16:31;11.00;99.90
25937;DHT22;13733;51.178;4.450;2023-05-18T07:18:57;11.20;99.90
25937;DHT22;13733;51.178;4.450;2023-05-18T07:21:25;11.10;99.90
25937;DHT22;13733;51.178;4.450;2023-05-18T07:23:51;11.10;99.90
25937;DHT22;13733;51.178;4.450;2023-05-18T07:26:18;11.00;99.90
25937;DHT22;13733;51.178;4.450;2023-05-18T07:28:44;11.10;99.90
25937;DHT22;13733;51.178;4.450;2023-05-18T07:31:10;11.10;99.90
25937;DHT22;13733;51.178;4.450;2023-05-18T07:33:36;11.10;99.90
25937;DHT22;13733;51.178;4.450;2023-05-18T07:36:02;11.10;99.90
25937;DHT22;13733;51.178;4.450;2023-05-18T07:38:28;11.10;99.90
25937;DHT22;13733;51.178;4.450;2023-05-18T07:40:54;11.40;99.90
25937;DHT22;13733;51.178;4.450;2023-05-18T07:43:20;11.50;99.90
25937;DHT22;13733;51.178;4.450;2023-05-18T07:45:46;11.60;99.90
25937;DHT22;13733;51.178;4.450;2023-05-18T07:48:11;11.70;99.90
25937;DHT22;13733;51.178;4.450;2023-05-18T07:50:37;11.80;99.90
25937;DHT22;13733;51.178;4.450;2023-05-18T07:53:03;12.00;99.90
25937;DHT22;13733;51.178;4.450;2023-05-18T07:55:29;12.30;99.90
25937;DHT22;13733;51.178;4.450;2023-05-18T07:57:55;12.40;99.90
25937;DHT22;13733;51.178;4.450;2023-05-18T08:00:21;12.50;99.90
25937;DHT22;13733;51.178;4.450;2023-05-18T08:02:47;12.50;99.90
25937;DHT22;13733;51.178;4.450;2023-05-18T08:05:12;12.60;99.90
25937;DHT22;13733;51.178;4.450;2023-05-18T08:07:38;12.80;99.90
25937;DHT22;13733;51.178;4.450;2023-05-18T08:10:04;12.90;99.90
25937;DHT22;13733;51.178;4.450;2023-05-18T08:12:31;13.30;99.90
25937;DHT22;13733;51.178;4.450;2023-05-18T08:14:58;13.30;99.90
25937;DHT22;13733;51.178;4.450;2023-05-18T08:17:24;13.40;99.90
25937;DHT22;13733;51.178;4.450;2023-05-18T08:19:49;13.50;99.90
25937;DHT22;13733;51.178;4.450;2023-05-18T08:22:18;13.60;99.90
25937;DHT22;13733;51.178;4.450;2023-05-18T08:24:44;13.70;99.90
25937;DHT22;13733;51.178;4.450;2023-05-18T08:27:11;13.90;99.90
25937;DHT22;13733;51.178;4.450;2023-05-18T08:29:36;14.10;99.90
25937;DHT22;13733;51.178;4.450;2023-05-18T08:32:05;14.20;99.90
25937;DHT22;13733;51.178;4.450;2023-05-18T08:34:31;14.30;99.90
25937;DHT22;13733;51.178;4.450;2023-05-18T08:36:58;14.50;99.90
25937;DHT22;13733;51.178;4.450;2023-05-18T08:39:24;14.80;99.90
25937;DHT22;13733;51.178;4.450;2023-05-18T08:42:06;14.70;99.90
25937;DHT22;13733;51.178;4.450;2023-05-18T08:45:05;14.70;99.90
25937;DHT22;13733;51.178;4.450;2023-05-18T08:47:36;14.70;99.90
25937;DHT22;13733;51.178;4.450;2023-05-18T08:50:02;14.90;99.90
25937;DHT22;13733;51.178;4.450;2023-05-18T08:52:34;14.90;99.90
25937;DHT22;13733;51.178;4.450;2023-05-18T08:55:05;15.10;99.90
25937;DHT22;13733;51.178;4.450;2023-05-18T08:57:34;15.10;99.90
25937;DHT22;13733;51.178;4.450;2023-05-18T09:00:01;15.30;99.90
25937;DHT22;13733;51.178;4.450;2023-05-18T09:02:28;15.30;99.90
25937;DHT22;13733;51.178;4.450;2023-05-18T09:04:55;15.50;99.90
25937;DHT22;13733;51.178;4.450;2023-05-18T09:07:22;15.60;99.90
25937;DHT22;13733;51.178;4.450;2023-05-18T09:09:48;15.90;99.50
25937;DHT22;13733;51.178;4.450;2023-05-18T09:12:15;15.90;98.50
25937;DHT22;13733;51.178;4.450;2023-05-18T09:14:42;15.90;98.00
25937;DHT22;13733;51.178;4.450;2023-05-18T09:17:08;15.90;97.30
25937;DHT22;13733;51.178;4.450;2023-05-18T09:19:36;16.30;96.40
25937;DHT22;13733;51.178;4.450;2023-05-18T09:22:02;16.60;95.00
25937;DHT22;13733;51.178;4.450;2023-05-18T09:24:28;16.80;93.40
25937;DHT22;13733;51.178;4.450;2023-05-18T09:26:54;16.90;94.00
25937;DHT22;13733;51.178;4.450;2023-05-18T09:29:21;16.90;93.20
25937;DHT22;13733;51.178;4.450;2023-05-18T09:31:50;17.00;92.90
25937;DHT22;13733;51.178;4.450;2023-05-18T09:34:18;17.30;93.10
25937;DHT22;13733;51.178;4.450;2023-05-18T09:36:51;17.60;90.70
25937;DHT22;13733;51.178;4.450;2023-05-18T09:39:22;17.70;90.80
25937;DHT22;13733;51.178;4.450;2023-05-18T09:41:54;17.70;90.90
25937;DHT22;13733;51.178;4.450;2023-05-18T09:44:30;17.40;91.00
25937;DHT22;13733;51.178;4.450;2023-05-18T09:46:56;17.20;91.10
25937;DHT22;13733;51.178;4.450;2023-05-18T09:49:23;17.40;90.50
25937;DHT22;13733;51.178;4.450;2023-05-18T09:51:48;17.50;87.90
25937;DHT22;13733;51.178;4.450;2023-05-18T09:54:14;17.90;87.70
25937;DHT22;13733;51.178;4.450;2023-05-18T09:56:40;18.10;87.00
25937;DHT22;13733;51.178;4.450;2023-05-18T09:59:11;18.00;84.50
25937;DHT22;13733;51.178;4.450;2023-05-18T10:01:57;18.10;85.90
25937;DHT22;13733;51.178;4.450;2023-05-18T10:04:45;18.30;84.20
25937;DHT22;13733;51.178;4.450;2023-05-18T10:07:14;18.20;85.10
25937;DHT22;13733;51.178;4.450;2023-05-18T10:09:41;18.40;83.30
25937;DHT22;13733;51.178;4.450;2023-05-18T10:12:17;18.40;83.90
25937;DHT22;13733;51.178;4.450;2023-05-18T10:14:45;18.60;84.90
25937;DHT22;13733;51.178;4.450;2023-05-18T10:17:15;18.60;83.10
25937;DHT22;13733;51.178;4.450;2023-05-18T10:19:41;18.80;79.80
25937;DHT22;13733;51.178;4.450;2023-05-18T10:22:09;19.00;78.60
25937;DHT22;13733;51.178;4.450;2023-05-18T10:24:41;19.10;77.50
25937;DHT22;13733;51.178;4.450;2023-05-18T10:27:09;18.60;75.70
25937;DHT22;13733;51.178;4.450;2023-05-18T10:29:36;18.90;78.60
25937;DHT22;13733;51.178;4.450;2023-05-18T10:32:03;19.00;77.40
25937;DHT22;13733;51.178;4.450;2023-05-18T10:34:31;19.00;76.30
25937;DHT22;13733;51.178;4.450;2023-05-18T10:36:59;19.00;75.90
25937;DHT22;13733;51.178;4.450;2023-05-18T10:39:25;18.80;76.30
25937;DHT22;13733;51.178;4.450;2023-05-18T10:41:56;18.90;77.70
25937;DHT22;13733;51.178;4.450;2023-05-18T10:44:23;18.90;76.60
25937;DHT22;13733;51.178;4.450;2023-05-18T10:46:49;19.00;74.30
25937;DHT22;13733;51.178;4.450;2023-05-18T10:49:19;19.20;73.50
25937;DHT22;13733;51.178;4.450;2023-05-18T10:51:48;19.20;72.20
25937;DHT22;13733;51.178;4.450;2023-05-18T10:54:17;19.10;73.30
25937;DHT22;13733;51.178;4.450;2023-05-18T10:56:46;19.10;70.30
25937;DHT22;13733;51.178;4.450;2023-05-18T10:59:14;19.40;68.70
25937;DHT22;13733;51.178;4.450;2023-05-18T11:01:41;20.20;66.00
25937;DHT22;13733;51.178;4.450;2023-05-18T11:04:07;21.00;64.40
25937;DHT22;13733;51.178;4.450;2023-05-18T11:06:33;20.80;62.50
25937;DHT22;13733;51.178;4.450;2023-05-18T11:09:01;21.40;61.50
25937;DHT22;13733;51.178;4.450;2023-05-18T11:11:27;21.90;60.00
25937;DHT22;13733;51.178;4.450;2023-05-18T11:14:00;22.40;57.70
25937;DHT22;13733;51.178;4.450;2023-05-18T11:16:34;22.60;57.20
25937;DHT22;13733;51.178;4.450;2023-05-18T11:19:07;22.60;56.30
25937;DHT22;13733;51.178;4.450;2023-05-18T11:24:29;22.40;54.60
25937;DHT22;13733;51.178;4.450;2023-05-18T11:26:59;22.10;55.50
25937;DHT22;13733;51.178;4.450;2023-05-18T11:29:34;21.80;55.40
25937;DHT22;13733;51.178;4.450;2023-05-18T11:32:01;21.90;56.20
25937;DHT22;13733;51.178;4.450;2023-05-18T11:34:43;21.70;57.10
25937;DHT22;13733;51.178;4.450;2023-05-18T11:37:14;22.50;56.00
25937;DHT22;13733;51.178;4.450;2023-05-18T11:39:40;23.60;52.00
25937;DHT22;13733;51.178;4.450;2023-05-18T11:42:11;24.30;49.00
25937;DHT22;13733;51.178;4.450;2023-05-18T11:44:39;24.70;49.90
25937;DHT22;13733;51.178;4.450;2023-05-18T11:47:09;24.70;49.10
25937;DHT22;13733;51.178;4.450;2023-05-18T11:49:48;25.50;45.80
25937;DHT22;13733;51.178;4.450;2023-05-18T11:52:21;25.70;43.30
25937;DHT22;13733;51.178;4.450;2023-05-18T11:54:55;24.90;43.40
25937;DHT22;13733;51.178;4.450;2023-05-18T11:57:26;24.80;43.30
25937;DHT22;13733;51.178;4.450;2023-05-18T12:00:06;24.90;43.90
25937;DHT22;13733;51.178;4.450;2023-05-18T12:02:40;24.60;43.00
25937;DHT22;13733;51.178;4.450;2023-05-18T12:05:08;24.90;40.90
25937;DHT22;13733;51.178;4.450;2023-05-18T12:07:35;25.70;40.60
25937;DHT22;13733;51.178;4.450;2023-05-18T12:10:11;25.50;40.70
25937;DHT22;13733;51.178;4.450;2023-05-18T12:12:40;26.00;41.00
25937;DHT22;13733;51.178;4.450;2023-05-18T12:15:07;26.90;39.30
25937;DHT22;13733;51.178;4.450;2023-05-18T12:17:43;27.30;39.20
25937;DHT22;13733;51.178;4.450;2023-05-18T12:20:13;26.90;38.40
25937;DHT22;13733;51.178;4.450;2023-05-18T12:22:41;27.10;37.60
25937;DHT22;13733;51.178;4.450;2023-05-18T12:25:07;27.00;38.10
25937;DHT22;13733;51.178;4.450;2023-05-18T12:27:41;27.10;37.10
25937;DHT22;13733;51.178;4.450;2023-05-18T12:30:21;27.00;37.70
25937;DHT22;13733;51.178;4.450;2023-05-18T12:35:14;27.20;37.20
25937;DHT22;13733;51.178;4.450;2023-05-18T12:37:43;27.20;37.30
25937;DHT22;13733;51.178;4.450;2023-05-18T12:40:10;26.00;36.80
25937;DHT22;13733;51.178;4.450;2023-05-18T12:42:37;25.60;38.00
25937;DHT22;13733;51.178;4.450;2023-05-18T12:45:04;25.80;37.30
25937;DHT22;13733;51.178;4.450;2023-05-18T12:47:32;25.70;37.00
25937;DHT22;13733;51.178;4.450;2023-05-18T12:50:01;25.90;37.50
25937;DHT22;13733;51.178;4.450;2023-05-18T12:52:27;26.20;37.30
25937;DHT22;13733;51.178;4.450;2023-05-18T12:54:56;26.70;35.70
25937;DHT22;13733;51.178;4.450;2023-05-18T12:57:26;26.70;36.50
25937;DHT22;13733;51.178;4.450;2023-05-18T12:59:53;27.20;35.90
25937;DHT22;13733;51.178;4.450;2023-05-18T13:02:33;27.40;35.60
25937;DHT22;13733;51.178;4.450;2023-05-18T13:05:02;28.10;34.80
25937;DHT22;13733;51.178;4.450;2023-05-18T13:07:28;28.90;34.20
25937;DHT22;13733;51.178;4.450;2023-05-18T13:10:00;29.30;33.20
25937;DHT22;13733;51.178;4.450;2023-05-18T13:12:45;30.50;32.60
25937;DHT22;13733;51.178;4.450;2023-05-18T13:15:16;30.70;30.00
25937;DHT22;13733;51.178;4.450;2023-05-18T13:17:56;30.50;30.30
25937;DHT22;13733;51.178;4.450;2023-05-18T13:20:23;30.20;30.20
25937;DHT22;13733;51.178;4.450;2023-05-18T13:22:50;29.80;30.70
25937;DHT22;13733;51.178;4.450;2023-05-18T13:25:16;28.40;30.80
25937;DHT22;13733;51.178;4.450;2023-05-18T13:27:42;28.00;31.30
25937;DHT22;13733;51.178;4.450;2023-05-18T13:30:10;28.10;31.80
25937;DHT22;13733;51.178;4.450;2023-05-18T13:32:37;28.00;32.50
25937;DHT22;13733;51.178;4.450;2023-05-18T13:35:04;28.20;32.30
25937;DHT22;13733;51.178;4.450;2023-05-18T13:37:30;27.90;31.60
25937;DHT22;13733;51.178;4.450;2023-05-18T13:39:56;27.80;31.80
25937;DHT22;13733;51.178;4.450;2023-05-18T13:42:21;28.20;31.90
25937;DHT22;13733;51.178;4.450;2023-05-18T13:44:47;28.50;31.00
25937;DHT22;13733;51.178;4.450;2023-05-18T13:47:13;29.20;30.10
25937;DHT22;13733;51.178;4.450;2023-05-18T13:49:39;29.70;29.90
25937;DHT22;13733;51.178;4.450;2023-05-18T13:52:05;29.90;29.30
25937;DHT22;13733;51.178;4.450;2023-05-18T13:54:31;29.20;29.70
25937;DHT22;13733;51.178;4.450;2023-05-18T13:56:57;29.30;29.30
25937;DHT22;13733;51.178;4.450;2023-05-18T13:59:23;30.00;28.50
25937;DHT22;13733;51.178;4.450;2023-05-18T14:01:49;30.20;28.60
25937;DHT22;13733;51.178;4.450;2023-05-18T14:04:15;30.60;28.60
25937;DHT22;13733;51.178;4.450;2023-05-18T14:06:40;30.70;28.00
25937;DHT22;13733;51.178;4.450;2023-05-18T14:09:06;30.80;28.00
25937;DHT22;13733;51.178;4.450;2023-05-18T14:11:32;31.80;27.60
25937;DHT22;13733;51.178;4.450;2023-05-18T14:14:02;32.20;26.60
25937;DHT22;13733;51.178;4.450;2023-05-18T14:16:28;32.00;26.70
25937;DHT22;13733;51.178;4.450;2023-05-18T14:18:55;32.30;26.40
25937;DHT22;13733;51.178;4.450;2023-05-18T14:21:20;32.80;26.00
25937;DHT22;13733;51.178;4.450;2023-05-18T14:23:46;32.70;25.70
25937;DHT22;13733;51.178;4.450;2023-05-18T14:26:12;32.90;25.80
25937;DHT22;13733;51.178;4.450;2023-05-18T14:28:38;33.30;25.30
25937;DHT22;13733;51.178;4.450;2023-05-18T14:31:04;33.40;25.50
25937;DHT22;13733;51.178;4.450;2023-05-18T14:33:30;34.00;25.10
25937;DHT22;13733;51.178;4.450;2023-05-18T14:35:56;34.10;25.10
25937;DHT22;13733;51.178;4.450;2023-05-18T14:38:23;33.90;25.20
25937;DHT22;13733;51.178;4.450;2023-05-18T14:40:52;34.30;24.90
25937;DHT22;13733;51.178;4.450;2023-05-18T14:43:18;34.60;24.30
25937;DHT22;13733;51.178;4.450;2023-05-18T14:45:43;33.80;24.70
25937;DHT22;13733;51.178;4.450;2023-05-18T14:48:09;34.00;24.40
25937;DHT22;13733;51.178;4.450;2023-05-18T14:50:36;33.70;24.80
25937;DHT22;13733;51.178;4.450;2023-05-18T14:53:02;34.10;25.00
25937;DHT22;13733;51.178;4.450;2023-05-18T14:55:27;34.10;24.90
25937;DHT22;13733;51.178;4.450;2023-05-18T14:57:53;34.10;24.60
25937;DHT22;13733;51.178;4.450;2023-05-18T15:00:19;33.20;25.00
25937;DHT22;13733;51.178;4.450;2023-05-18T15:02:45;32.70;25.10
25937;DHT22;13733;51.178;4.450;2023-05-18T15:05:11;32.40;25.30
25937;DHT22;13733;51.178;4.450;2023-05-18T15:07:36;32.90;25.70
25937;DHT22;13733;51.178;4.450;2023-05-18T15:10:04;33.40;25.70
25937;DHT22;13733;51.178;4.450;2023-05-18T15:12:30;33.30;25.20
25937;DHT22;13733;51.178;4.450;2023-05-18T15:14:58;33.60;25.60
25937;DHT22;13733;51.178;4.450;2023-05-18T15:17:24;34.10;24.50
25937;DHT22;13733;51.178;4.450;2023-05-18T15:19:49;32.30;25.40
25937;DHT22;13733;51.178;4.450;2023-05-18T15:22:15;31.80;26.30
25937;DHT22;13733;51.178;4.450;2023-05-18T15:24:41;31.80;26.50
25937;DHT22;13733;51.178;4.450;2023-05-18T15:27:07;31.70;26.30
25937;DHT22;13733;51.178;4.450;2023-05-18T15:29:33;31.40;26.50
25937;DHT22;13733;51.178;4.450;2023-05-18T15:32:00;31.00;26.80
25937;DHT22;13733;51.178;4.450;2023-05-18T15:34:26;31.30;26.60
25937;DHT22;13733;51.178;4.450;2023-05-18T15:36:51;31.10;26.80
25937;DHT22;13733;51.178;4.450;2023-05-18T15:39:18;31.80;26.10
25937;DHT22;13733;51.178;4.450;2023-05-18T15:41:44;31.00;26.20
25937;DHT22;13733;51.178;4.450;2023-05-18T15:44:10;30.00;26.70
25937;DHT22;13733;51.178;4.450;2023-05-18T15:46:35;29.60;27.40
25937;DHT22;13733;51.178;4.450;2023-05-18T15:49:02;29.90;28.00
25937;DHT22;13733;51.178;4.450;2023-05-18T15:51:28;30.20;27.40
25937;DHT22;13733;51.178;4.450;2023-05-18T15:53:54;30.30;26.80
25937;DHT22;13733;51.178;4.450;2023-05-18T15:56:20;30.50;26.90
25937;DHT22;13733;51.178;4.450;2023-05-18T15:58:46;30.60;26.70